sensor_id;sensor_type;location;lat;lon;timestamp;temperature;humidity
12557;DHT22;6344;49.932;8.308;2023-04-03T00:02:20;4.20;99.90
12557;DHT22;6344;49.932;8.308;2023-04-03T00:04:47;4.20;99.90
12557;DHT22;6344;49.932;8.308;2023-04-03T00:07:14;4.10;99.90
12557;DHT22;6344;49.932;8.308;2023-04-03T00:09:42;4.10;99.90
12557;DHT22;6344;49.932;8.308;2023-04-03T00:12:09;4.20;99.90
12557;DHT22;6344;49.932;8.308;2023-04-03T00:14:36;4.20;99.90
12557;DHT22;6344;49.932;8.308;2023-04-03T00:17:02;4.40;99.90
12557;DHT22;6344;49.932;8.308;2023-04-03T00:19:29;4.50;99.90
12557;DHT22;6344;49.932;8.308;2023-04-03T00:21:56;4.50;99.90
12557;DHT22;6344;49.932;8.308;2023-04-03T00:24:23;4.50;99.90
12557;DHT22;6344;49.932;8.308;2023-04-03T00:26:51;4.50;99.90
12557;DHT22;6344;49.932;8.308;2023-04-03T00:29:17;4.50;99.90
12557;DHT22;6344;49.932;8.308;2023-04-03T00:31:44;4.40;99.90
12557;DHT22;6344;49.932;8.308;2023-04-03T00:34:11;4.50;99.90
12557;DHT22;6344;49.932;8.308;2023-04-03T00:36:37;4.40;99.90
12557;DHT22;6344;49.932;8.308;2023-04-03T00:39:04;4.30;99.90
12557;DHT22;6344;49.932;8.308;2023-04-03T00:41:31;4.30;99.90
12557;DHT22;6344;49.932;8.308;2023-04-03T00:43:59;4.20;99.90
12557;DHT22;6344;49.932;8.308;2023-04-03T00:46:26;4.10;99.90
12557;DHT22;6344;49.932;8.308;2023-04-03T00:48:52;4.10;99.90
12557;DHT22;6344;49.932;8.308;2023-04-03T00:51:22;4.10;99.90
12557;DHT22;6344;49.932;8.308;2023-04-03T00:53:53;4.30;99.90
12557;DHT22;6344;49.932;8.308;2023-04-03T00:56:23;4.30;99.90
12557;DHT22;6344;49.932;8.308;2023-04-03T00:58:54;4.50;99.90
12557;DHT22;6344;49.932;8.308;2023-04-03T01:01:26;4.50;99.90
12557;DHT22;6344;49.932;8.308;2023-04-03T01:03:53;4.60;99.90
12557;DHT22;6344;49.932;8.308;2023-04-03T01:06:24;4.70;99.90
12557;DHT22;6344;49.932;8.308;2023-04-03T01:08:52;4.80;99.90
12557;DHT22;6344;49.932;8.308;2023-04-03T01:11:19;4.50;99.90
12557;DHT22;6344;49.932;8.308;2023-04-03T01:13:47;4.30;99.90
12557;DHT22;6344;49.932;8.308;2023-04-03T01:16:14;4.30;99.90
12557;DHT22;6344;49.932;8.308;2023-04-03T01:18:43;4.40;99.90
12557;DHT22;6344;49.932;8.308;2023-04-03T01:21:29;4.50;99.90
12557;DHT22;6344;49.932;8.308;2023-04-03T01:24:16;4.30;99.90
12557;DHT22;6344;49.932;8.308;2023-04-03T01:26:45;4.60;99.90
12557;DHT22;6344;49.932;8.308;2023-04-03T01:29:11;4.60;99.90
12557;DHT22;6344;49.932;8.308;2023-04-03T01:31:48;4.60;99.90
12557;DHT22;6344;49.932;8.308;2023-04-03T01:34:15;4.60;99.90
12557;DHT22;6344;49.932;8.308;2023-04-03T01:36:42;4.70;99.90
12557;DHT22;6344;49.932;8.308;2023-04-03T01:39:09;4.70;99.90
12557;DHT22;6344;49.932;8.308;2023-04-03T01:41:36;4.60;99.90
12557;DHT22;6344;49.932;8.308;2023-04-03T01:44:03;4.40;99.90
12557;DHT22;6344;49.932;8.308;2023-04-03T01:46:30;4.60;99.90
12557;DHT22;6344;49.932;8.308;2023-04-03T01:48:58;4.50;99.90
12557;DHT22;6344;49.932;8.308;2023-04-03T01:51:25;4.50;99.90
12557;DHT22;6344;49.932;8.308;2023-04-03T01:53:51;4.30;99.90
12557;DHT22;6344;49.932;8.308;2023-04-03T01:56:18;4.20;99.90
12557;DHT22;6344;49.932;8.308;2023-04-03T01:58:45;4.30;99.90
12557;DHT22;6344;49.932;8.308;2023-04-03T02:01:12;4.30;99.90
12557;DHT22;6344;49.932;8.308;2023-04-03T02:03:38;4.30;99.90
12557;DHT22;6344;49.932;8.308;2023-04-03T02:06:07;4.40;99.90
12557;DHT22;6344;49.932;8.308;2023-04-03T02:08:33;4.60;99.90
12557;DHT22;6344;49.932;8.308;2023-04-03T02:11:00;4.60;99.90
12557;DHT22;6344;49.932;8.308;2023-04-03T02:13:27;4.70;99.90
12557;DHT22;6344;49.932;8.308;2023-04-03T02:15:53;4.60;99.90
12557;DHT22;6344;49.932;8.308;2023-04-03T02:18:20;4.70;99.90
12557;DHT22;6344;49.932;8.308;2023-04-03T02:20:47;4.60;99.90
12557;DHT22;6344;49.932;8.308;2023-04-03T02:23:15;4.50;99.90
12557;DHT22;6344;49.932;8.308;2023-04-03T02:25:41;4.50;99.90
12557;DHT22;6344;49.932;8.308;2023-04-03T02:28:08;4.30;99.90
12557;DHT22;6344;49.932;8.308;2023-04-03T02:30:35;4.40;99.90
12557;DHT22;6344;49.932;8.308;2023-04-03T02:33:02;4.40;99.90
12557;DHT22;6344;49.932;8.308;2023-04-03T02:35:28;4.30;99.90
12557;DHT22;6344;49.932;8.308;2023-04-03T02:37:55;4.50;99.90
12557;DHT22;6344;49.932;8.308;2023-04-03T02:40:23;4.60;99.90
12557;DHT22;6344;49.932;8.308;2023-04-03T02:42:50;4.60;99.90
12557;DHT22;6344;49.932;8.308;2023-04-03T02:45:16;4.70;99.90
12557;DHT22;6344;49.932;8.308;2023-04-03T02:47:43;4.60;99.90
12557;DHT22;6344;49.932;8.308;2023-04-03T02:50:10;4.60;99.90
12557;DHT22;6344;49.932;8.308;2023-04-03T02:52:37;4.60;99.90
12557;DHT22;6344;49.932;8.308;2023-04-03T02:55:04;4.60;99.90
12557;DHT22;6344;49.932;8.308;2023-04-03T02:57:32;4.60;99.90
12557;DHT22;6344;49.932;8.308;2023-04-03T02:59:59;4.60;99.90
12557;DHT22;6344;49.932;8.308;2023-04-03T03:02:26;4.50;99.90
12557;DHT22;6344;49.932;8.308;2023-04-03T03:04:52;4.50;99.90
12557;DHT22;6344;49.932;8.308;2023-04-03T03:07:19;4.50;99.90
12557;DHT22;6344;49.932;8.308;2023-04-03T03:09:46;4.60;99.90
12557;DHT22;6344;49.932;8.308;2023-04-03T03:12:12;4.60;99.90
12557;DHT22;6344;49.932;8.308;2023-04-03T03:14:40;4.60;99.90
12557;DHT22;6344;49.932;8.308;2023-04-03T03:17:08;4.60;99.90
12557;DHT22;6344;49.932;8.308;2023-04-03T03:19:34;4.50;99.90
12557;DHT22;6344;49.932;8.308;2023-04-03T03:22:01;4.60;99.90
12557;DHT22;6344;49.932;8.308;2023-04-03T03:24:28;4.60;99.90
12557;DHT22;6344;49.932;8.308;2023-04-03T03:26:54;4.50;99.90
12557;DHT22;6344;49.932;8.308;2023-04-03T03:29:21;4.50;99.90
12557;DHT22;6344;49.932;8.308;2023-04-03T03:31:49;4.50;99.90
12557;DHT22;6344;49.932;8.308;2023-04-03T03:34:16;4.40;99.90
12557;DHT22;6344;49.932;8.308;2023-04-03T03:36:43;4.50;99.90
12557;DHT22;6344;49.932;8.308;2023-04-03T03:39:10;4.50;99.90
12557;DHT22;6344;49.932;8.308;2023-04-03T03:41:37;4.50;99.90
12557;DHT22;6344;49.932;8.308;2023-04-03T03:44:04;4.50;99.90
12557;DHT22;6344;49.932;8.308;2023-04-03T03:46:30;4.50;99.90
12557;DHT22;6344;49.932;8.308;2023-04-03T03:48:58;4.50;99.90
12557;DHT22;6344;49.932;8.308;2023-04-03T03:51:25;4.40;99.90
12557;DHT22;6344;49.932;8.308;2023-04-03T03:53:52;4.40;99.90
12557;DHT22;6344;49.932;8.308;2023-04-03T03:56:19;4.40;99.90
12557;DHT22;6344;49.932;8.308;2023-04-03T03:58:46;4.40;99.90
12557;DHT22;6344;49.932;8.308;2023-04-03T04:01:12;4.40;99.90
12557;DHT22;6344;49.932;8.308;2023-04-03T04:03:39;4.30;99.90
12557;DHT22;6344;49.932;8.308;2023-04-03T04:06:07;4.30;99.90
12557;DHT22;6344;49.932;8.308;2023-04-03T04:08:34;4.30;99.90
12557;DHT22;6344;49.932;8.308;2023-04-03T04:11:01;4.30;99.90
12557;DHT22;6344;49.932;8.308;2023-04-03T04:13:27;4.30;99.90
12557;DHT22;6344;49.932;8.308;2023-04-03T04:15:54;4.20;99.90
12557;DHT22;6344;49.932;8.308;2023-04-03T04:18:21;4.20;99.90
12557;DHT22;6344;49.932;8.308;2023-04-03T04:20:48;4.10;99.90
12557;DHT22;6344;49.932;8.308;2023-04-03T04:23:16;4.00;99.90
12557;DHT22;6344;49.932;8.308;2023-04-03T04:25:44;3.90;99.90
12557;DHT22;6344;49.932;8.308;2023-04-03T04:28:11;3.90;99.90
12557;DHT22;6344;49.932;8.308;2023-04-03T04:30:37;3.90;99.90
12557;DHT22;6344;49.932;8.308;2023-04-03T04:33:04;3.80;99.90
12557;DHT22;6344;49.932;8.308;2023-04-03T04:35:32;3.80;99.90
12557;DHT22;6344;49.932;8.308;2023-04-03T04:37:59;3.80;99.90
12557;DHT22;6344;49.932;8.308;2023-04-03T04:40:27;3.70;99.90
12557;DHT22;6344;49.932;8.308;2023-04-03T04:42:54;3.70;99.90
12557;DHT22;6344;49.932;8.308;2023-04-03T04:45:20;3.60;99.90
12557;DHT22;6344;49.932;8.308;2023-04-03T04:47:47;3.60;99.90
12557;DHT22;6344;49.932;8.308;2023-04-03T04:50:17;3.60;99.90
12557;DHT22;6344;49.932;8.308;2023-04-03T04:52:43;3.50;99.90
12557;DHT22;6344;49.932;8.308;2023-04-03T04:55:10;3.50;99.90
12557;DHT22;6344;49.932;8.308;2023-04-03T04:57:38;3.50;99.90
12557;DHT22;6344;49.932;8.308;2023-04-03T05:00:06;3.40;99.90
12557;DHT22;6344;49.932;8.308;2023-04-03T05:02:33;3.40;99.90
12557;DHT22;6344;49.932;8.308;2023-04-03T05:04:59;3.40;99.90
12557;DHT22;6344;49.932;8.308;2023-04-03T05:07:26;3.30;99.90
12557;DHT22;6344;49.932;8.308;2023-04-03T05:09:53;3.30;99.90
12557;DHT22;6344;49.932;8.308;2023-04-03T05:12:19;3.20;99.90
12557;DHT22;6344;49.932;8.308;2023-04-03T05:14:47;3.30;99.90
12557;DHT22;6344;49.932;8.308;2023-04-03T05:17:14;3.30;99.90
12557;DHT22;6344;49.932;8.308;2023-04-03T05:19:40;3.20;99.90
12557;DHT22;6344;49.932;8.308;2023-04-03T05:22:07;3.20;99.90
12557;DHT22;6344;49.932;8.308;2023-04-03T05:24:34;3.10;99.90
12557;DHT22;6344;49.932;8.308;2023-04-03T05:27:00;3.10;99.90
12557;DHT22;6344;49.932;8.308;2023-04-03T05:29:27;3.10;99.90
12557;DHT22;6344;49.932;8.308;2023-04-03T05:31:55;3.10;99.90
12557;DHT22;6344;49.932;8.308;2023-04-03T05:34:22;3.10;99.90
12557;DHT22;6344;49.932;8.308;2023-04-03T05:36:48;3.10;99.90
12557;DHT22;6344;49.932;8.308;2023-04-03T05:39:15;3.10;99.90
12557;DHT22;6344;49.932;8.308;2023-04-03T05:41:42;3.10;99.90
12557;DHT22;6344;49.932;8.308;2023-04-03T05:44:08;3.10;99.90
12557;DHT22;6344;49.932;8.308;2023-04-03T05:46:35;3.10;99.90
12557;DHT22;6344;49.932;8.308;2023-04-03T05:49:03;3.10;99.90
12557;DHT22;6344;49.932;8.308;2023-04-03T05:51:34;3.10;99.90
12557;DHT22;6344;49.932;8.308;2023-04-03T05:54:04;3.10;99.90
12557;DHT22;6344;49.932;8.308;2023-04-03T05:56:32;3.20;99.90
12557;DHT22;6344;49.932;8.308;2023-04-03T05:58:59;3.20;99.90
12557;DHT22;6344;49.932;8.308;2023-04-03T06:01:26;3.20;99.90
12557;DHT22;6344;49.932;8.308;2023-04-03T06:03:52;3.20;99.90
12557;DHT22;6344;49.932;8.308;2023-04-03T06:06:20;3.30;99.90
12557;DHT22;6344;49.932;8.308;2023-04-03T06:08:47;3.30;99.90
12557;DHT22;6344;49.932;8.308;2023-04-03T06:11:14;3.40;99.90
12557;DHT22;6344;49.932;8.308;2023-04-03T06:13:40;3.50;99.90
12557;DHT22;6344;49.932;8.308;2023-04-03T06:16:08;3.60;99.90
12557;DHT22;6344;49.932;8.308;2023-04-03T06:18:35;3.60;99.90
12557;DHT22;6344;49.932;8.308;2023-04-03T06:21:02;3.70;99.90
12557;DHT22;6344;49.932;8.308;2023-04-03T06:23:31;3.70;99.90
12557;DHT22;6344;49.932;8.308;2023-04-03T06:25:58;3.70;99.90
12557;DHT22;6344;49.932;8.308;2023-04-03T06:28:25;3.70;99.90
12557;DHT22;6344;49.932;8.308;2023-04-03T06:30:51;3.70;99.90
12557;DHT22;6344;49.932;8.308;2023-04-03T06:33:18;3.80;99.90
12557;DHT22;6344;49.932;8.308;2023-04-03T06:35:45;4.00;99.90
12557;DHT22;6344;49.932;8.308;2023-04-03T06:38:12;4.30;99.90
12557;DHT22;6344;49.932;8.308;2023-04-03T06:40:40;4.50;99.90
12557;DHT22;6344;49.932;8.308;2023-04-03T06:43:06;4.90;99.90
12557;DHT22;6344;49.932;8.308;2023-04-03T06:45:33;5.00;99.90
12557;DHT22;6344;49.932;8.308;2023-04-03T06:48:01;4.90;99.90
12557;DHT22;6344;49.932;8.308;2023-04-03T06:50:28;4.90;99.90
12557;DHT22;6344;49.932;8.308;2023-04-03T06:52:54;4.90;99.90
12557;DHT22;6344;49.932;8.308;2023-04-03T06:55:21;5.10;99.90
12557;DHT22;6344;49.932;8.308;2023-04-03T06:57:49;5.20;99.90
12557;DHT22;6344;49.932;8.308;2023-04-03T07:00:17;5.20;99.90
12557;DHT22;6344;49.932;8.308;2023-04-03T07:02:44;4.70;99.90
12557;DHT22;6344;49.932;8.308;2023-04-03T07:05:10;4.70;99.90
12557;DHT22;6344;49.932;8.308;2023-04-03T07:07:37;4.70;99.90
12557;DHT22;6344;49.932;8.308;2023-04-03T07:10:05;4.60;99.90
12557;DHT22;6344;49.932;8.308;2023-04-03T07:12:32;4.60;99.90
12557;DHT22;6344;49.932;8.308;2023-04-03T07:15:00;4.70;99.90
12557;DHT22;6344;49.932;8.308;2023-04-03T07:17:28;4.90;99.90
12557;DHT22;6344;49.932;8.308;2023-04-03T07:19:54;5.00;99.90
12557;DHT22;6344;49.932;8.308;2023-04-03T07:22:21;5.00;99.90
12557;DHT22;6344;49.932;8.308;2023-04-03T07:24:48;5.10;99.90
12557;DHT22;6344;49.932;8.308;2023-04-03T07:27:14;5.40;99.90
12557;DHT22;6344;49.932;8.308;2023-04-03T07:29:43;5.60;99.90
12557;DHT22;6344;49.932;8.308;2023-04-03T07:32:11;5.70;99.90
12557;DHT22;6344;49.932;8.308;2023-04-03T07:34:37;5.90;99.90
12557;DHT22;6344;49.932;8.308;2023-04-03T07:37:04;5.80;99.90
12557;DHT22;6344;49.932;8.308;2023-04-03T07:39:32;6.00;99.90
12557;DHT22;6344;49.932;8.308;2023-04-03T07:41:58;6.10;99.90
12557;DHT22;6344;49.932;8.308;2023-04-03T07:44:25;6.30;99.90
12557;DHT22;6344;49.932;8.308;2023-04-03T07:46:52;6.50;99.90
12557;DHT22;6344;49.932;8.308;2023-04-03T07:49:22;6.50;99.90
12557;DHT22;6344;49.932;8.308;2023-04-03T07:51:49;6.40;99.90
12557;DHT22;6344;49.932;8.308;2023-04-03T07:54:16;6.40;99.90
12557;DHT22;6344;49.932;8.308;2023-04-03T07:56:43;6.30;99.90
12557;DHT22;6344;49.932;8.308;2023-04-03T07:59:10;6.20;99.90
12557;DHT22;6344;49.932;8.308;2023-04-03T08:01:37;6.20;99.90
12557;DHT22;6344;49.932;8.308;2023-04-03T08:04:04;6.10;99.90
12557;DHT22;6344;49.932;8.308;2023-04-03T08:06:33;6.30;99.90
12557;DHT22;6344;49.932;8.308;2023-04-03T08:09:02;6.30;99.90
12557;DHT22;6344;49.932;8.308;2023-04-03T08:11:29;6.40;99.90
12557;DHT22;6344;49.932;8.308;2023-04-03T08:13:56;6.60;99.90
12557;DHT22;6344;49.932;8.308;2023-04-03T08:16:24;6.50;99.90
12557;DHT22;6344;49.932;8.308;2023-04-03T08:18:52;6.40;99.90
12557;DHT22;6344;49.932;8.308;2023-04-03T08:21:19;6.80;99.90
12557;DHT22;6344;49.932;8.308;2023-04-03T08:23:48;6.90;99.90
12557;DHT22;6344;49.932;8.308;2023-04-03T08:26:17;6.70;99.90
12557;DHT22;6344;49.932;8.308;2023-04-03T08:28:44;6.90;99.90
12557;DHT22;6344;49.932;8.308;2023-04-03T08:31:13;7.00;99.90
12557;DHT22;6344;49.932;8.308;2023-04-03T08:33:40;6.90;99.90
12557;DHT22;6344;49.932;8.308;2023-04-03T08:36:18;6.70;99.90
12557;DHT22;6344;49.932;8.308;2023-04-03T08:38:47;6.90;99.90
12557;DHT22;6344;49.932;8.308;2023-04-03T08:41:16;7.20;99.90
12557;DHT22;6344;49.932;8.308;2023-04-03T08:43:56;7.50;99.90
12557;DHT22;6344;49.932;8.308;2023-04-03T08:46:25;7.60;99.90
12557;DHT22;6344;49.932;8.308;2023-04-03T08:48:55;7.70;99.90
12557;DHT22;6344;49.932;8.308;2023-04-03T08:51:26;7.80;99.90
12557;DHT22;6344;49.932;8.308;2023-04-03T08:53:58;7.50;99.90
12557;DHT22;6344;49.932;8.308;2023-04-03T08:56:27;7.70;99.90
12557;DHT22;6344;49.932;8.308;2023-04-03T08:58:56;7.70;99.90
12557;DHT22;6344;49.932;8.308;2023-04-03T09:01:27;8.00;99.90
12557;DHT22;6344;49.932;8.308;2023-04-03T09:03:56;7.70;99.90
12557;DHT22;6344;49.932;8.308;2023-04-03T09:06:25;8.00;99.90
12557;DHT22;6344;49.932;8.308;2023-04-03T09:09:06;7.80;99.90
12557;DHT22;6344;49.932;8.308;2023-04-03T09:11:46;8.10;99.90
12557;DHT22;6344;49.932;8.308;2023-04-03T09:14:16;8.70;99.90
12557;DHT22;6344;49.932;8.308;2023-04-03T09:16:49;8.60;99.90
12557;DHT22;6344;49.932;8.308;2023-04-03T09:19:24;8.20;99.90
12557;DHT22;6344;49.932;8.308;2023-04-03T09:21:56;8.00;99.90
12557;DHT22;6344;49.932;8.308;2023-04-03T09:24:24;7.90;99.90
12557;DHT22;6344;49.932;8.308;2023-04-03T09:26:54;7.20;99.90
12557;DHT22;6344;49.932;8.308;2023-04-03T09:29:24;6.90;99.90
12557;DHT22;6344;49.932;8.308;2023-04-03T09:31:56;7.10;99.90
12557;DHT22;6344;49.932;8.308;2023-04-03T09:34:26;7.10;99.90
12557;DHT22;6344;49.932;8.308;2023-04-03T09:36:54;7.60;99.90
12557;DHT22;6344;49.932;8.308;2023-04-03T09:39:24;8.60;99.90
12557;DHT22;6344;49.932;8.308;2023-04-03T09:42:00;8.90;99.90
12557;DHT22;6344;49.932;8.308;2023-04-03T09:44:34;9.00;99.90
12557;DHT22;6344;49.932;8.308;2023-04-03T09:47:18;9.10;99.90
12557;DHT22;6344;49.932;8.308;2023-04-03T09:49:45;7.90;99.90
12557;DHT22;6344;49.932;8.308;2023-04-03T09:52:19;8.30;99.90
12557;DHT22;6344;49.932;8.308;2023-04-03T09:54:47;7.80;99.90
12557;DHT22;6344;49.932;8.308;2023-04-03T09:57:15;8.20;99.90
12557;DHT22;6344;49.932;8.308;2023-04-03T09:59:46;7.90;99.90
12557;DHT22;6344;49.932;8.308;2023-04-03T10:05:28;7.80;99.90
12557;DHT22;6344;49.932;8.308;2023-04-03T10:08:08;7.20;99.90
12557;DHT22;6344;49.932;8.308;2023-04-03T10:10:37;7.10;99.90
12557;DHT22;6344;49.932;8.308;2023-04-03T10:13:06;7.60;99.90
12557;DHT22;6344;49.932;8.308;2023-04-03T10:15:37;7.70;99.90
12557;DHT22;6344;49.932;8.308;2023-04-03T10:18:15;7.70;99.90
12557;DHT22;6344;49.932;8.308;2023-04-03T10:20:48;7.60;99.90
12557;DHT22;6344;49.932;8.308;2023-04-03T10:23:19;7.70;99.90
12557;DHT22;6344;49.932;8.308;2023-04-03T10:25:55;7.50;99.90
12557;DHT22;6344;49.932;8.308;2023-04-03T10:28:30;7.80;99.90
12557;DHT22;6344;49.932;8.308;2023-04-03T10:31:05;8.40;99.90
12557;DHT22;6344;49.932;8.308;2023-04-03T10:33:47;8.10;99.90
12557;DHT22;6344;49.932;8.308;2023-04-03T10:36:25;8.20;99.90
12557;DHT22;6344;49.932;8.308;2023-04-03T10:39:01;8.20;99.90
12557;DHT22;6344;49.932;8.308;2023-04-03T10:41:37;9.00;99.90
12557;DHT22;6344;49.932;8.308;2023-04-03T10:44:12;10.00;99.90
12557;DHT22;6344;49.932;8.308;2023-04-03T10:46:44;11.10;99.90
12557;DHT22;6344;49.932;8.308;2023-04-03T10:49:25;10.20;99.90
12557;DHT22;6344;49.932;8.308;2023-04-03T10:51:58;9.60;99.90
12557;DHT22;6344;49.932;8.308;2023-04-03T10:54:34;9.70;99.90
12557;DHT22;6344;49.932;8.308;2023-04-03T10:57:05;9.80;99.90
12557;DHT22;6344;49.932;8.308;2023-04-03T10:59:36;10.70;99.90
12557;DHT22;6344;49.932;8.308;2023-04-03T11:02:07;10.30;99.90
12557;DHT22;6344;49.932;8.308;2023-04-03T11:04:40;9.50;99.90
12557;DHT22;6344;49.932;8.308;2023-04-03T11:07:10;9.00;99.90
12557;DHT22;6344;49.932;8.308;2023-04-03T11:09:40;9.00;99.90
12557;DHT22;6344;49.932;8.308;2023-04-03T11:12:12;8.60;99.90
12557;DHT22;6344;49.932;8.308;2023-04-03T11:14:41;8.40;99.90
12557;DHT22;6344;49.932;8.308;2023-04-03T11:17:19;9.00;99.90
12557;DHT22;6344;49.932;8.308;2023-04-03T11:19:56;8.80;99.90
12557;DHT22;6344;49.932;8.308;2023-04-03T11:22:25;8.50;99.90
12557;DHT22;6344;49.932;8.308;2023-04-03T11:24:58;9.50;99.90
12557;DHT22;6344;49.932;8.308;2023-04-03T11:27:27;9.80;99.90
12557;DHT22;6344;49.932;8.308;2023-04-03T11:29:58;9.30;99.90
12557;DHT22;6344;49.932;8.308;2023-04-03T11:32:47;9.10;99.90
12557;DHT22;6344;49.932;8.308;2023-04-03T11:35:17;8.80;99.90
12557;DHT22;6344;49.932;8.308;2023-04-03T11:37:46;8.80;99.90
12557;DHT22;6344;49.932;8.308;2023-04-03T11:40:22;8.80;99.90
12557;DHT22;6344;49.932;8.308;2023-04-03T11:42:54;8.90;99.90
12557;DHT22;6344;49.932;8.308;2023-04-03T11:45:33;9.90;99.90
12557;DHT22;6344;49.932;8.308;2023-04-03T11:48:02;9.30;99.90
12557;DHT22;6344;49.932;8.308;2023-04-03T11:50:47;9.30;99.90
12557;DHT22;6344;49.932;8.308;2023-04-03T11:53:27;9.20;99.90
12557;DHT22;6344;49.932;8.308;2023-04-03T11:55:57;9.20;99.90
12557;DHT22;6344;49.932;8.308;2023-04-03T11:58:27;10.00;99.90
12557;DHT22;6344;49.932;8.308;2023-04-03T12:00:59;9.50;99.90
12557;DHT22;6344;49.932;8.308;2023-04-03T12:04:09;9.30;99.90
12557;DHT22;6344;49.932;8.308;2023-04-03T12:06:53;9.60;99.90
12557;DHT22;6344;49.932;8.308;2023-04-03T12:12:30;9.50;99.90
12557;DHT22;6344;49.932;8.308;2023-04-03T12:17:51;9.20;99.90
12557;DHT22;6344;49.932;8.308;2023-04-03T12:23:26;9.30;99.90
12557;DHT22;6344;49.932;8.308;2023-04-03T12:26:03;8.60;99.90
12557;DHT22;6344;49.932;8.308;2023-04-03T12:28:36;9.50;99.90
12557;DHT22;6344;49.932;8.308;2023-04-03T12:31:04;10.50;99.90
12557;DHT22;6344;49.932;8.308;2023-04-03T12:33:38;10.30;99.90
12557;DHT22;6344;49.932;8.308;2023-04-03T12:36:11;10.00;99.90
12557;DHT22;6344;49.932;8.308;2023-04-03T12:38:52;9.70;99.90
12557;DHT22;6344;49.932;8.308;2023-04-03T12:41:30;9.30;99.90
12557;DHT22;6344;49.932;8.308;2023-04-03T12:44:11;9.20;99.90
12557;DHT22;6344;49.932;8.308;2023-04-03T12:46:44;9.60;99.90
12557;DHT22;6344;49.932;8.308;2023-04-03T12:49:22;10.20;99.90
12557;DHT22;6344;49.932;8.308;2023-04-03T12:51:51;9.70;99.90
12557;DHT22;6344;49.932;8.308;2023-04-03T12:54:30;9.30;99.90
12557;DHT22;6344;49.932;8.308;2023-04-03T12:57:19;10.00;99.90
12557;DHT22;6344;49.932;8.308;2023-04-03T12:59:46;10.60;99.90
12557;DHT22;6344;49.932;8.308;2023-04-03T13:02:21;9.70;99.90
12557;DHT22;6344;49.932;8.308;2023-04-03T13:04:51;9.40;99.90
12557;DHT22;6344;49.932;8.308;2023-04-03T13:07:23;9.70;99.90
12557;DHT22;6344;49.932;8.308;2023-04-03T13:09:57;10.70;99.90
12557;DHT22;6344;49.932;8.308;2023-04-03T13:12:25;11.30;99.90
12557;DHT22;6344;49.932;8.308;2023-04-03T13:14:52;11.60;99.90
12557;DHT22;6344;49.932;8.308;2023-04-03T13:17:20;10.40;99.90
12557;DHT22;6344;49.932;8.308;2023-04-03T13:19:47;10.60;99.90
12557;DHT22;6344;49.932;8.308;2023-04-03T13:22:24;11.20;99.90
12557;DHT22;6344;49.932;8.308;2023-04-03T13:24:52;11.00;99.90
12557;DHT22;6344;49.932;8.308;2023-04-03T13:27:20;11.50;99.90
12557;DHT22;6344;49.932;8.308;2023-04-03T13:29:50;11.40;99.90
12557;DHT22;6344;49.932;8.308;2023-04-03T13:32:20;11.10;99.90
12557;DHT22;6344;49.932;8.308;2023-04-03T13:34:48;11.20;99.90
12557;DHT22;6344;49.932;8.308;2023-04-03T13:37:24;10.60;99.90
12557;DHT22;6344;49.932;8.308;2023-04-03T13:40:03;11.10;99.90
12557;DHT22;6344;49.932;8.308;2023-04-03T13:42:32;11.00;99.90
12557;DHT22;6344;49.932;8.308;2023-04-03T13:45:19;10.90;99.90
12557;DHT22;6344;49.932;8.308;2023-04-03T13:47:47;11.10;99.90
12557;DHT22;6344;49.932;8.308;2023-04-03T13:50:18;10.80;99.90
12557;DHT22;6344;49.932;8.308;2023-04-03T13:52:48;10.80;99.90
12557;DHT22;6344;49.932;8.308;2023-04-03T13:55:19;10.50;99.90
12557;DHT22;6344;49.932;8.308;2023-04-03T13:57:52;10.60;99.90
12557;DHT22;6344;49.932;8.308;2023-04-03T14:00:26;10.50;99.90
12557;DHT22;6344;49.932;8.308;2023-04-03T14:02:55;10.60;99.90
12557;DHT22;6344;49.932;8.308;2023-04-03T14:05:23;10.60;99.90
12557;DHT22;6344;49.932;8.308;2023-04-03T14:07:52;10.60;99.90
12557;DHT22;6344;49.932;8.308;2023-04-03T14:10:19;10.40;99.90
12557;DHT22;6344;49.932;8.308;2023-04-03T14:12:46;10.50;99.90
12557;DHT22;6344;49.932;8.308;2023-04-03T14:15:18;10.20;99.90
12557;DHT22;6344;49.932;8.308;2023-04-03T14:17:46;10.30;99.90
12557;DHT22;6344;49.932;8.308;2023-04-03T14:20:15;10.60;99.90
12557;DHT22;6344;49.932;8.308;2023-04-03T14:22:42;10.80;99.90
12557;DHT22;6344;49.932;8.308;2023-04-03T14:25:10;11.50;99.90
12557;DHT22;6344;49.932;8.308;2023-04-03T14:27:39;11.40;99.90
12557;DHT22;6344;49.932;8.308;2023-04-03T14:30:08;11.10;99.90
12557;DHT22;6344;49.932;8.308;2023-04-03T14:32:35;10.80;99.90
12557;DHT22;6344;49.932;8.308;2023-04-03T14:35:03;11.20;99.90
12557;DHT22;6344;49.932;8.308;2023-04-03T14:37:30;11.10;99.90
12557;DHT22;6344;49.932;8.308;2023-04-03T14:39:59;10.80;99.90
12557;DHT22;6344;49.932;8.308;2023-04-03T14:42:29;10.90;99.90
12557;DHT22;6344;49.932;8.308;2023-04-03T14:44:57;10.70;99.90
12557;DHT22;6344;49.932;8.308;2023-04-03T14:47:26;10.50;99.90
12557;DHT22;6344;49.932;8.308;2023-04-03T14:49:53;11.20;99.90
12557;DHT22;6344;49.932;8.308;2023-04-03T14:52:23;11.00;99.90
12557;DHT22;6344;49.932;8.308;2023-04-03T14:54:51;11.00;99.90
12557;DHT22;6344;49.932;8.308;2023-04-03T14:57:18;11.00;99.90
12557;DHT22;6344;49.932;8.308;2023-04-03T14:59:47;10.80;99.90
12557;DHT22;6344;49.932;8.308;2023-04-03T15:02:25;10.50;99.90
12557;DHT22;6344;49.932;8.308;2023-04-03T15:04:52;10.90;99.90
12557;DHT22;6344;49.932;8.308;2023-04-03T15:07:19;11.10;99.90
12557;DHT22;6344;49.932;8.308;2023-04-03T15:09:46;11.10;99.90
12557;DHT22;6344;49.932;8.308;2023-04-03T15:12:13;11.10;99.90
12557;DHT22;6344;49.932;8.308;2023-04-03T15:14:39;10.90;99.90
12557;DHT22;6344;49.932;8.308;2023-04-03T15:17:12;10.50;99.90
12557;DHT22;6344;49.932;8.308;2023-04-03T15:19:40;10.20;99.90
12557;DHT22;6344;49.932;8.308;2023-04-03T15:22:08;10.20;99.90
12557;DHT22;6344;49.932;8.308;2023-04-03T15:24:36;10.00;99.90
12557;DHT22;6344;49.932;8.308;2023-04-03T15:27:02;10.50;99.90
12557;DHT22;6344;49.932;8.308;2023-04-03T15:29:29;10.30;99.90
12557;DHT22;6344;49.932;8.308;2023-04-03T15:31:56;10.30;99.90
12557;DHT22;6344;49.932;8.308;2023-04-03T15:34:24;10.40;99.90
12557;DHT22;6344;49.932;8.308;2023-04-03T15:36:50;10.10;99.90
12557;DHT22;6344;49.932;8.308;2023-04-03T15:39:17;10.20;99.90
12557;DHT22;6344;49.932;8.308;2023-04-03T15:41:45;10.60;99.90
12557;DHT22;6344;49.932;8.308;2023-04-03T15:44:12;10.30;99.90
12557;DHT22;6344;49.932;8.308;2023-04-03T15:46:39;10.30;99.90
12557;DHT22;6344;49.932;8.308;2023-04-03T15:49:06;10.30;99.90
12557;DHT22;6344;49.932;8.308;2023-04-03T15:51:35;10.40;99.90
12557;DHT22;6344;49.932;8.308;2023-04-03T15:54:02;10.40;99.90
12557;DHT22;6344;49.932;8.308;2023-04-03T15:56:28;10.40;99.90
12557;DHT22;6344;49.932;8.308;2023-04-03T15:58:55;9.90;99.90
12557;DHT22;6344;49.932;8.308;2023-04-03T16:01:21;9.90;99.90
12557;DHT22;6344;49.932;8.308;2023-04-03T16:03:48;9.90;99.90
12557;DHT22;6344;49.932;8.308;2023-04-03T16:06:17;10.30;99.90
12557;DHT22;6344;49.932;8.308;2023-04-03T16:08:46;10.60;99.90
12557;DHT22;6344;49.932;8.308;2023-04-03T16:11:14;10.90;99.90
12557;DHT22;6344;49.932;8.308;2023-04-03T16:13:41;10.60;99.90
12557;DHT22;6344;49.932;8.308;2023-04-03T16:16:07;9.90;99.90
12557;DHT22;6344;49.932;8.308;2023-04-03T16:18:35;10.10;99.90
12557;DHT22;6344;49.932;8.308;2023-04-03T16:21:02;10.00;99.90
12557;DHT22;6344;49.932;8.308;2023-04-03T16:23:29;9.70;99.90